logo
App data

Trouble Witches Origin - Episode1 Daughters of Amalgam -

That witches come back undergone a power-up further! New character is entered! All 6stages Arcade version of all re-adjust the resolution of the base in 1280x720! "Magic Circle system" is easy-to-use adjustment! Full voice all by the story undergoes new writing.
Store | Hub | SteamDB | Site
Developer: Studio SiestA Publisher: Rocket-Engine Co.,Ltd.
Genre: Action, Indie
Languages: English, Japanese
Tags: Action (60), Indie (59), Shoot 'Em Up (25), Anime (22), Bullet Hell (21), Female Protagonist (13), Cute (11), Arcade (8), 2D (7)
Category: Single-player, Steam Achievements, Full controller support, Steam Trading Cards, Steam Cloud, Steam Leaderboards
Release date: Nov 21, 2016
Price: $9.99
Old userscore: 93% Owners: 0 .. 20,000
Followers: 2,235
Peak concurrent players yesterday: 2
YouTube stats: 4 views and 0 comments for top 50 videos uploaded last week, 0 new videos uploaded yesterday.

Steam Spy is still in beta, so expect major bugs.

Owners data:

Access restricted.

This feature is only available to users with special access rights. Sorry.

If you want to proceed, you need to register or log in first and then back Steam Spy on Patreon. Look for Indie or Pro pledge.

Don't forget to use the same email as on Steam Spy!

If you've recently backed Steam Spy on Patreon, please note, that it might take around 15 minutes for your access rights to sync. In most cases you'll need to re-login on Steam Spy too.

Audience in 2 weeks:

Access restricted.

This feature is only available to users with special access rights. Sorry.

If you want to proceed, you need to register or log in first and then back Steam Spy on Patreon. Look for Indie or Pro pledge.

Don't forget to use the same email as on Steam Spy!

If you've recently backed Steam Spy on Patreon, please note, that it might take around 15 minutes for your access rights to sync. In most cases you'll need to re-login on Steam Spy too.

Peak daily concurrent players:

CCU data courtesy of SteamDB. Used with permission.

Hourly concurrent players:

Followers over time

Access restricted.

This feature is only available to users with special access rights. Sorry.

If you want to proceed, you need to register or log in first and then back Steam Spy on Patreon. Look for Indie or Pro pledge.

Don't forget to use the same email as on Steam Spy!

If you've recently backed Steam Spy on Patreon, please note, that it might take around 15 minutes for your access rights to sync. In most cases you'll need to re-login on Steam Spy too.

Views for top 50 videos on YouTube for this game:

Games similar to this one:

# Game Release date
Price
Score rank
(Userscore / Metascore)
Owners
Players
Playtime (Median)
1 BIT.TRIP BEAT Nov 2, 2010 $5.99N/A (N/A)100,000 .. 200,0000%00:00 (00:00)
2 Super Splatters Jun 26, 2013 N/AN/A (N/A/73%)50,000 .. 100,0000%00:00 (00:00)
3 Ms. Splosion Man Apr 3, 2013 $9.99N/A (N/A)50,000 .. 100,0000%00:00 (00:00)
4 Titan Attacks! Feb 3, 2012 $12.99N/A (N/A)50,000 .. 100,0000%00:00 (00:00)
5 Tales From Space: Mutant Blobs Attack Aug 15, 2012 $9.99N/A (N/A/83%)50,000 .. 100,0000%00:00 (00:00)
6 Sugar Cube: Bittersweet Factory Nov 7, 2012 $6.99N/A (N/A)20,000 .. 50,0000%00:00 (00:00)
7 Party of Sin Dec 13, 2012 $5.99N/A (N/A)50,000 .. 100,0000%00:00 (00:00)
8 Home Aug 31, 2012 $4.99N/A (N/A/69%)200,000 .. 500,0000%00:00 (00:00)
9 Ultratron Mar 18, 2013 $12.99N/A (N/A)100,000 .. 200,0000%00:00 (00:00)
10 Cargo Commander Nov 1, 2012 $2.99N/A (N/A)100,000 .. 200,0000%00:00 (00:00)
11 Puddle Nov 9, 2012 $7.99N/A (N/A)100,000 .. 200,0000%00:00 (00:00)
12 Retro/Grade Mar 20, 2013 $9.99N/A (N/A)50,000 .. 100,0000%00:00 (00:00)
13 Papo & Yo Apr 18, 2013 $14.99N/A (N/A/70%)50,000 .. 100,0000%00:00 (00:00)
14 Dream Jul 31, 2015 $8.99N/A (N/A/59%)50,000 .. 100,0000%00:00 (00:00)
15 Bad Hotel Oct 16, 2013 $4.99N/A (N/A)50,000 .. 100,0000%00:00 (00:00)
16 Godus Oct 1, 1987 $14.99N/A (N/A)200,000 .. 500,0000%00:00 (00:00)
17 Wake $4.99N/A (N/A)0 .. 20,0000%00:00 (00:00)
18 Zack Zero Apr 29, 2013 $2.99N/A (N/A)50,000 .. 100,0000%00:00 (00:00)
19 Element4l May 24, 2013 $8.99N/A (N/A/77%)50,000 .. 100,0000%00:00 (00:00)
20 Intake Nov 5, 2013 $9.99N/A (N/A)20,000 .. 50,0000%00:00 (00:00)
21 Super Puzzle Platformer Deluxe May 24, 2013 $7.99N/A (N/A)20,000 .. 50,0000%00:00 (00:00)
22 Poöf Nov 8, 2013 $6.99N/A (N/A)20,000 .. 50,0000%00:00 (00:00)
23 The Novelist Dec 10, 2013 $4.99N/A (N/A/66%)100,000 .. 200,0000%00:00 (00:00)
24 Knytt Underground Oct 25, 2013 $1.39N/A (N/A)50,000 .. 100,0000%00:00 (00:00)
25 Escape Goat Oct 9, 2013 $4.99N/A (N/A)20,000 .. 50,0000%00:00 (00:00)
26 Solar Flux Oct 24, 2013 $9.99N/A (N/A)100,000 .. 200,0000%00:00 (00:00)
27 Maia Nov 23, 2018 $24.99N/A (N/A)20,000 .. 50,0000%00:00 (00:00)
28 FOTONICA Nov 6, 2014 $14.99N/A (N/A/71%)50,000 .. 100,0000%00:00 (00:00)
29 Gentlemen! Nov 5, 2013 $4.99N/A (N/A)20,000 .. 50,0000%00:00 (00:00)
30 Escape Goat 2 Mar 24, 2014 $9.99N/A (N/A/76%)50,000 .. 100,0000%00:00 (00:00)
31 Survivor Squad Jan 21, 2015 $2.99N/A (N/A)100,000 .. 200,0000%00:00 (00:00)
32 Montague's Mount Nov 19, 2013 $4.99N/A (N/A/39%)20,000 .. 50,0000%00:00 (00:00)
33 Ballpoint Universe - Infinite Dec 17, 2013 $3.99N/A (N/A)50,000 .. 100,0000%00:00 (00:00)
34 STARWHAL Sep 29, 2014 $11.99N/A (N/A)50,000 .. 100,0000%00:00 (00:00)
35 Full Bore May 6, 2014 $14.99N/A (N/A/72%)20,000 .. 50,0000%00:00 (00:00)
36 Imagine Me Dec 9, 2014 $2.99N/A (N/A)20,000 .. 50,0000%00:00 (00:00)
37 Montas Mar 24, 2014 $9.99N/A (N/A)0 .. 20,0000%00:00 (00:00)
38 Jones On Fire Mar 14, 2013 $2.99N/A (N/A)50,000 .. 100,0000%00:00 (00:00)
39 10 Second Ninja Mar 5, 2014 $1.99N/A (N/A/72%)50,000 .. 100,0000%00:00 (00:00)
40 Labyrinthine Dreams May 26, 2015 $1.99N/A (N/A)50,000 .. 100,0000%00:00 (00:00)
41 Munin Jun 10, 2014 $4.99N/A (N/A/68%)200,000 .. 500,0000%00:00 (00:00)
42 Rabbit Hole 3D: Steam Edition Apr 25, 2014 $2.99N/A (N/A)50,000 .. 100,0000%00:00 (00:00)
43 Kromaia Oct 23, 2014 $19.99N/A (N/A/68%)20,000 .. 50,0000%00:00 (00:00)
44 ReignMaker Apr 16, 2014 $14.99N/A (N/A)50,000 .. 100,0000%00:00 (00:00)
45 Volt Apr 14, 2014 $0.99N/A (N/A)100,000 .. 200,0000%00:00 (00:00)
46 Three Dead Zed Jul 7, 2014 $5.99N/A (N/A)100,000 .. 200,0000%00:00 (00:00)
47 Starship Corporation May 3, 2018 $19.99N/A (N/A)100,000 .. 200,0000%00:00 (00:00)
48 Uriel's Chasm Sep 12, 2014 $4.99N/A (N/A)200,000 .. 500,0000%00:00 (00:00)
49 Cosmochoria Apr 27, 2015 $9.99N/A (N/A)20,000 .. 50,0000%00:00 (00:00)
50 Road Not Taken Aug 5, 2014 $14.99N/A (N/A/75%)50,000 .. 100,0000%00:00 (00:00)
51 TownCraft Feb 25, 2015 $9.99N/A (N/A)0 .. 20,0000%00:00 (00:00)
52 Dreaming Sarah Mar 12, 2015 $5.99N/A (N/A)200,000 .. 500,0000%00:00 (00:00)
53 Frederic: Resurrection of Music May 16, 2014 $2.99N/A (N/A)100,000 .. 200,0000%00:00 (00:00)
54 Frederic: Evil Strikes Back May 23, 2014 $7.99N/A (N/A)200,000 .. 500,0000%00:00 (00:00)
55 Rhythm Destruction Jun 16, 2014 $4.99N/A (N/A)50,000 .. 100,0000%00:00 (00:00)
56 Boson X Sep 15, 2014 $2.99N/A (N/A)200,000 .. 500,0000%00:00 (00:00)
57 Concursion Jun 6, 2014 $4.99N/A (N/A/66%)20,000 .. 50,0000%00:00 (00:00)
58 Iron Fisticle Sep 16, 2014 $8.99N/A (N/A)50,000 .. 100,00010%05:17 (01:45)
59 Back to Bed Aug 6, 2014 $5.99N/A (N/A)1,000,000 .. 2,000,0000%00:00 (00:00)
60 NEON STRUCT May 20, 2015 $17.99N/A (N/A/62%)50,000 .. 100,0000%00:00 (00:00)
61 OTTTD Aug 6, 2014 $7.99N/A (N/A)20,000 .. 50,0000%00:00 (00:00)
62 The Masterplan Jun 4, 2015 $19.99N/A (N/A/68%)50,000 .. 100,0000%00:00 (00:00)
63 Velocibox Sep 8, 2014 $4.99N/A (N/A)50,000 .. 100,0000%00:00 (00:00)
64 Squishy the Suicidal Pig Oct 23, 2014 $5.99N/A (N/A)200,000 .. 500,0000%00:00 (00:00)
65 Chariot Nov 12, 2014 $14.99N/A (N/A/76%)100,000 .. 200,0000%00:00 (00:00)
66 Ninja Pizza Girl Sep 30, 2015 $6.99N/A (N/A/82%)50,000 .. 100,0000%00:00 (00:00)
67 iO Dec 5, 2014 $4.99N/A (N/A)20,000 .. 50,0000%00:00 (00:00)
68 Horizon Shift May 29, 2015 $4.99N/A (N/A)100,000 .. 200,0000%00:00 (00:00)
69 Pix the Cat Jan 29, 2015 $4.99N/A (N/A/77%)50,000 .. 100,0000%00:00 (00:00)
70 Tulpa Jan 29, 2015 $2.99N/A (N/A)50,000 .. 100,0000%00:00 (00:00)
71 Phoenix Force Nov 13, 2014 $0.99N/A (N/A)100,000 .. 200,0000%00:00 (00:00)
72 A Druid's Duel Feb 25, 2015 $7.99N/A (N/A/70%)20,000 .. 50,0000%00:00 (00:00)
73 Sky Mercenaries Dec 16, 2014 $9.99N/A (N/A)20,000 .. 50,0000%00:00 (00:00)
74 Chronicles of a Dark Lord: Episode 1 Tides of Fate Complete Dec 19, 2014 N/AN/A (N/A)50,000 .. 100,0000%00:00 (00:00)
75 Four Sided Fantasy Aug 30, 2016 $9.99N/A (N/A)50,000 .. 100,0000%00:00 (00:00)
76 Bermuda Mar 17, 2015 $2.99N/A (N/A)20,000 .. 50,0000%00:00 (00:00)
77 Ukrainian Ninja Dec 23, 2014 FreeN/A (N/A)50,000 .. 100,0000%00:00 (00:00)
78 Predestination Feb 26, 2019 $29.99N/A (N/A)0 .. 20,0000%00:00 (00:00)
79 TIMEframe Jul 7, 2015 $5.99N/A (N/A)50,000 .. 100,0000%00:00 (00:00)
80 On A Roll 3D Feb 12, 2015 $3.99N/A (N/A)50,000 .. 100,0000%00:00 (00:00)
81 Glorkian Warrior: The Trials Of Glork Mar 24, 2015 $3.99N/A (N/A)20,000 .. 50,0000%00:00 (00:00)
82 Countless Rooms of Death Feb 20, 2014 $0.99N/A (N/A)20,000 .. 50,0000%00:00 (00:00)
83 It came from space and ate our brains Mar 19, 2015 $14.99N/A (N/A)200,000 .. 500,0000%00:00 (00:00)
84 Disillusions Manga Horror Apr 6, 2013 $0.99N/A (N/A)20,000 .. 50,0000%00:00 (00:00)
85 Three Fourths Home: Extended Edition Mar 20, 2015 $4.99N/A (N/A/77%)20,000 .. 50,0000%00:00 (00:00)
86 Rats - Time is running out! Aug 19, 2015 N/AN/A (N/A)50,000 .. 100,0000%00:00 (00:00)
87 Beyond Sol Jun 30, 2015 $9.99N/A (N/A/83%)0 .. 20,0000%00:00 (00:00)
88 Star Horizon May 28, 2015 $9.99N/A (N/A)20,000 .. 50,0000%00:00 (00:00)
89 Miner Warfare Jun 11, 2015 $2.99N/A (N/A)20,000 .. 50,00033.33%04:07 (02:03)
90 Centauri Sector Jun 23, 2015 $4.99N/A (N/A)0 .. 20,0000%00:00 (00:00)
91 Beyond Eyes Aug 11, 2015 N/AN/A (N/A/60%)100,000 .. 200,0000%00:00 (00:00)
92 Soccer Rage Jun 2, 2015 $9.99N/A (N/A)20,000 .. 50,0000%00:00 (00:00)
93 Big Action Mega Fight! Jan 12, 2016 $1.99N/A (N/A)20,000 .. 50,0000%00:00 (00:00)
94 Inside My Radio May 11, 2015 $14.99N/A (N/A/68%)20,000 .. 50,0000%00:00 (00:00)
95 Gryphon Knight Epic Aug 20, 2015 $12.99N/A (N/A/55%)20,000 .. 50,0000%00:00 (00:00)
96 In Space We Brawl Jul 17, 2015 N/AN/A (N/A)0 .. 20,0000%00:00 (00:00)
97 Hare In The Hat Apr 1, 2015 $1.99N/A (N/A)50,000 .. 100,0000%00:00 (00:00)
98 Kiai Resonance Apr 23, 2015 $4.99N/A (N/A)20,000 .. 50,0000%00:00 (00:00)
99 Spellsworn Mar 13, 2018 FreeN/A (N/A)100,000 .. 200,0003.45%00:22 (00:07)
100 Luna Sky Oct 2, 2015 $12.99N/A (N/A)50,000 .. 100,0000%00:00 (00:00)
101 Interstellar Rift Sep 24, 2020 $19.99N/A (N/A)50,000 .. 100,0000%00:00 (00:00)
102 Pixel Star May 22, 2015 $2.99N/A (N/A)20,000 .. 50,0000%00:00 (00:00)
103 Polyball Dec 1, 2017 $14.99N/A (N/A)200,000 .. 500,0000%00:00 (00:00)
104 Season of 12 Colors Mar 14, 2016 $2.99N/A (N/A)50,000 .. 100,0000%00:00 (00:00)
105 Cosmophony Jul 9, 2015 $4.99N/A (N/A)20,000 .. 50,0000%00:00 (00:00)
106 Football, Tactics & Glory Jun 1, 2018 $24.99N/A (N/A)200,000 .. 500,00011.11%03:12 (01:04)
107 The Adventures of Mr. Bobley Jul 1, 2015 $0.99N/A (N/A)50,000 .. 100,0000%00:00 (00:00)
108 Monument Jun 5, 2015 $1.99N/A (N/A)20,000 .. 50,0000%00:00 (00:00)
109 Western Press Apr 21, 2016 $4.99N/A (N/A)20,000 .. 50,0000%00:00 (00:00)
110 Sky Rogue Aug 24, 2017 $19.99N/A (N/A)50,000 .. 100,0000%00:00 (00:00)
111 Action Alien Jun 26, 2015 $4.99N/A (N/A)100,000 .. 200,0000%00:00 (00:00)
112 8Bit Fiesta - Party Game Sep 30, 2016 FreeN/A (N/A)50,000 .. 100,0000%00:00 (00:00)
113 Dead In Bermuda Aug 27, 2015 $14.99N/A (N/A)20,000 .. 50,0000%00:00 (00:00)
114 Aviary Attorney Dec 21, 2015 $14.99N/A (N/A/77%)20,000 .. 50,0000%00:00 (00:00)
115 none Nov 4, 2015 N/AN/A (N/A)20,000 .. 50,0000%00:00 (00:00)
116 Super Trench Attack 2 Nov 6, 2015 $2.99N/A (N/A)20,000 .. 50,0000%00:00 (00:00)
117 Redemption: Eternal Quest Aug 28, 2015 $0.99N/A (N/A)100,000 .. 200,0002.94%03:07 (01:02)
118 Angry Arrows Aug 12, 2015 $4.99N/A (N/A)20,000 .. 50,0000%00:00 (00:00)
119 The Musketeers: Victoria's Quest Aug 20, 2015 $3.99N/A (N/A)0 .. 20,0000%00:00 (00:00)
120 Void Invaders Aug 14, 2015 $2.99N/A (N/A)20,000 .. 50,0000%00:00 (00:00)
121 Blaster Shooter GunGuy! Aug 10, 2015 $1.99N/A (N/A)100,000 .. 200,0000%00:00 (00:00)
122 Wild Island Quest Sep 4, 2015 $1.99N/A (N/A)50,000 .. 100,0000%00:00 (00:00)
123 Shmadow Nov 3, 2015 $1.99N/A (N/A)20,000 .. 50,0000%00:00 (00:00)
124 Dragon's Wake Dec 10, 2015 $3.99N/A (N/A)20,000 .. 50,0000%00:00 (00:00)
125 Kitchen Simulator 2015 Sep 2, 2015 $0.99N/A (N/A)20,000 .. 50,0000%00:00 (00:00)
126 Press X to Not Die Oct 6, 2017 $2.99N/A (N/A)100,000 .. 200,0000%00:00 (00:00)
127 1,000 Heads Among the Trees Dec 11, 2015 $4.99N/A (N/A)50,000 .. 100,0000%00:00 (00:00)
128 Fist Slash: Of Ultimate Fury Dec 10, 2015 $0.99N/A (N/A)0 .. 20,0000%00:00 (00:00)
129 The Purring Quest Nov 12, 2015 $9.99N/A (N/A)100,000 .. 200,0000%00:00 (00:00)
130 Perraw - FPS Clone War Alpha Jan 29, 2016 $0.99N/A (N/A)20,000 .. 50,0000%00:00 (00:00)
131 Morphine Oct 26, 2015 $2.99N/A (N/A)50,000 .. 100,0000%00:00 (00:00)
132 Heavy Gear Assault Feb 10, 2017 N/AN/A (N/A)20,000 .. 50,0000%00:00 (00:00)
133 Cosmic Leap Mar 17, 2016 $0.99N/A (N/A)50,000 .. 100,0000%00:00 (00:00)
134 Godus Wars Feb 3, 2016 $14.99N/A (N/A)50,000 .. 100,0000%00:00 (00:00)
135 Bell Ringer Mar 18, 2016 $6.99N/A (N/A)100,000 .. 200,0000%00:00 (00:00)
136 PERFECT ANGLE: The puzzle game based on optical illusions Dec 22, 2015 $9.99N/A (N/A)100,000 .. 200,0000%00:00 (00:00)
137 Doodle Kingdom Jun 9, 2016 $8.99N/A (N/A)50,000 .. 100,0005.88%00:07 (00:02)
138 Rencounter Nov 4, 2016 $5.99N/A (N/A)50,000 .. 100,0000%00:00 (00:00)
139 10 Second Ninja X Jul 19, 2016 $9.99N/A (N/A)200,000 .. 500,0000%00:00 (00:00)
140 Binaries Apr 4, 2016 $9.99N/A (N/A)0 .. 20,0000%00:00 (00:00)
141 Empire of the Gods May 13, 2008 $0.99N/A (N/A)50,000 .. 100,0000%00:00 (00:00)
142 Mindless Running Feb 18, 2016 $0.99N/A (N/A)20,000 .. 50,0000%00:00 (00:00)
143 Mimpi Dreams Mar 22, 2016 FreeN/A (N/A)20,000 .. 50,0000%00:00 (00:00)
144 Bunker Punks May 28, 2018 $14.99N/A (N/A)20,000 .. 50,0000%00:00 (00:00)
145 Guns of Infinity Mar 29, 2016 $4.99N/A (N/A)0 .. 20,0000%00:00 (00:00)
146 Yon Paradox May 6, 2016 $2.99N/A (N/A)0 .. 20,0000%00:00 (00:00)
147 Amigdala Mar 28, 2016 $5.99N/A (N/A)20,000 .. 50,0000%00:00 (00:00)
148 Cube Land Arena Mar 29, 2016 $0.49N/A (N/A)20,000 .. 50,0000%00:00 (00:00)
149 Hero Quest: Tower Conflict Apr 13, 2016 $0.99N/A (N/A)200,000 .. 500,0000%00:00 (00:00)
150 CrazyCars3D Jun 14, 2016 $2.99N/A (N/A)50,000 .. 100,0000%00:00 (00:00)
151 Mainlining Jan 26, 2017 $12.99N/A (N/A/73%)100,000 .. 200,0000%00:00 (00:00)
152 StarsOne Apr 8, 2016 $4.99N/A (N/A)0 .. 20,0000%00:00 (00:00)
153 Domino Sky Apr 5, 2016 $3.99N/A (N/A)100,000 .. 200,0000%00:00 (00:00)
154 Wrath of Anna Apr 2, 2018 $19.99N/A (N/A)50,000 .. 100,0000%00:00 (00:00)
155 Moonstone Tavern - A Fantasy Tavern Sim! May 13, 2016 $7.99N/A (N/A)20,000 .. 50,0000%00:00 (00:00)
156 NORTH Apr 27, 2016 $1.99N/A (N/A)200,000 .. 500,0000%00:00 (00:00)
157 上帝之城 I:监狱帝国 [City of God I - Prison Empire] Jul 9, 2018 $18.99N/A (N/A)100,000 .. 200,0000%00:00 (00:00)
158 Scanner Sombre Apr 26, 2017 $5.99N/A (N/A/67%)100,000 .. 200,0000%00:00 (00:00)
159 ORCS May 20, 2016 $1.99N/A (N/A)20,000 .. 50,0000%00:00 (00:00)
160 Reflection of Mine Feb 24, 2017 $7.99N/A (N/A)20,000 .. 50,0000%00:00 (00:00)
161 Amulet of Dreams Jun 3, 2016 $6.99N/A (N/A)0 .. 20,0000%00:00 (00:00)
162 Star Drifter Jun 1, 2016 $0.99N/A (N/A)200,000 .. 500,0000%00:00 (00:00)
163 Call Of The Mighty Warriors Jun 2, 2016 $0.99N/A (N/A)20,000 .. 50,0000%00:00 (00:00)
164 Karma Miwa Aug 12, 2016 FreeN/A (N/A)20,000 .. 50,0000%00:00 (00:00)
165 Super Duper Party Pooper Jun 6, 2016 $0.99N/A (N/A/40%)100,000 .. 200,0000%00:00 (00:00)
166 DashBored Jun 13, 2016 $4.99N/A (N/A)50,000 .. 100,0000%00:00 (00:00)
167 Dinosaur Forest May 17, 2017 $1.99N/A (N/A)100,000 .. 200,0000%00:00 (00:00)
168 Wheels of Aurelia Sep 20, 2016 $14.99N/A (N/A/63%)20,000 .. 50,0000%00:00 (00:00)
169 Joana's Life Sep 1, 2016 $0.99N/A (N/A)50,000 .. 100,0000%00:00 (00:00)
170 Pinkman Jan 16, 2017 $0.99N/A (N/A)20,000 .. 50,0000%00:00 (00:00)
171 Intensive Exposure Sep 6, 2016 $4.99N/A (N/A)20,000 .. 50,0000%00:00 (00:00)
172 It Comes Around - A Kinetic Novel Sep 29, 2016 $2.99N/A (N/A)0 .. 20,0000%00:00 (00:00)
173 Starship Annihilator Sep 2, 2016 $1.99N/A (N/A)200,000 .. 500,0000%00:00 (00:00)
174 Deisim Dec 19, 2016 $14.99N/A (N/A)0 .. 20,0000%00:00 (00:00)
175 The Gleam: VR Escape the Room Oct 14, 2016 $3.99N/A (N/A)50,000 .. 100,0000%00:00 (00:00)
176 Please, Don't Touch Anything 3D Dec 7, 2016 $9.99N/A (N/A)100,000 .. 200,0000%00:00 (00:00)
177 mr.President Prologue Episode Sep 20, 2016 $0.99N/A (N/A)50,000 .. 100,0000%00:00 (00:00)
178 Filthy Lucre Dec 11, 2016 $12.99N/A (N/A)0 .. 20,0000%00:00 (00:00)
179 BoomTown! Deluxe Oct 14, 2016 $0.99N/A (N/A)50,000 .. 100,0000%00:00 (00:00)
180 Son of a Witch May 16, 2018 $19.99N/A (N/A)20,000 .. 50,0000%00:00 (00:00)
181 Pixel Gladiator Sep 8, 2017 $0.59N/A (N/A)20,000 .. 50,0000%00:00 (00:00)
182 Snake Pass Mar 28, 2017 $19.99N/A (N/A/71%)500,000 .. 1,000,0000%00:00 (00:00)
183 Wayout Nov 4, 2016 $0.99N/A (N/A)50,000 .. 100,0000%00:00 (00:00)
184 Zolg Dec 2, 2016 $0.99N/A (N/A)50,000 .. 100,0000%00:00 (00:00)
185 99Vidas Dec 22, 2016 $12.99N/A (N/A/69%)50,000 .. 100,0000%00:00 (00:00)
186 Witch It Oct 22, 2020 $19.99N/A (N/A)500,000 .. 1,000,0001.88%02:00 (01:37)
187 Introvert Quest Mar 15, 2017 $2.99N/A (N/A)100,000 .. 200,0000%00:00 (00:00)
188 Distant Space Dec 20, 2016 $0.99N/A (N/A)100,000 .. 200,0000%00:00 (00:00)
189 Child Phobia: Nightcoming Fears Dec 20, 2016 $1.99N/A (N/A)20,000 .. 50,0000%00:00 (00:00)
190 Mistwood Heroes Dec 30, 2016 $3.99N/A (N/A)50,000 .. 100,00012.5%01:16 (00:25)
191 Three Kingdoms The Last Warlord Feb 4, 2021 $1.99N/A (N/A)50,000 .. 100,0000%00:00 (00:00)
192 GORN Jul 18, 2019 $19.99N/A (N/A/85%)200,000 .. 500,0000%00:00 (00:00)
193 Monolith Jun 7, 2017 $7.99N/A (N/A/83%)100,000 .. 200,0000%00:00 (00:00)
194 Guns of Icarus Alliance Mar 31, 2017 $4.99N/A (N/A)100,000 .. 200,0000%00:00 (00:00)
195 The Archotek Project Apr 28, 2017 $0.99N/A (N/A)200,000 .. 500,0000.28%00:01 (00:00)

Tags over time:

Access restricted.

This feature is only available to users with special access rights. Sorry.

If you want to proceed, you need to register or log in first and then back Steam Spy on Patreon. Look for Indie or Pro pledge.

Don't forget to use the same email as on Steam Spy!

If you've recently backed Steam Spy on Patreon, please note, that it might take around 15 minutes for your access rights to sync. In most cases you'll need to re-login on Steam Spy too.

Owners of this game also own:

Access restricted.

This feature is only available to users with special access rights. Sorry.

If you want to proceed, you need to register or log in first and then back Steam Spy on Patreon. Look for Indie or Pro pledge.

Don't forget to use the same email as on Steam Spy!

If you've recently backed Steam Spy on Patreon, please note, that it might take around 15 minutes for your access rights to sync. In most cases you'll need to re-login on Steam Spy too.

Playtime distribution:

Access restricted.

This feature is only available to users with special access rights. Sorry.

If you want to proceed, you need to register or log in first and then back Steam Spy on Patreon. Look for Indie or Pro pledge.

Don't forget to use the same email as on Steam Spy!

If you've recently backed Steam Spy on Patreon, please note, that it might take around 15 minutes for your access rights to sync. In most cases you'll need to re-login on Steam Spy too.

Playtime (2 weeks):

Access restricted.

This feature is only available to users with special access rights. Sorry.

If you want to proceed, you need to register or log in first and then back Steam Spy on Patreon. Look for Indie or Pro pledge.

Don't forget to use the same email as on Steam Spy!

If you've recently backed Steam Spy on Patreon, please note, that it might take around 15 minutes for your access rights to sync. In most cases you'll need to re-login on Steam Spy too.

User reviews:

Login required.

Please register or log in to see this information.